French Lick, IN

12:14 PM EST on February 24, 2017 (GMT -0500)
fL | | Change Station
Active Advisory: Special Statement

Elev 758 ft 38.53 °N, 86.65 °W | Updated 13 minutes ago

Clear
Clear
71.7 °F
Feels Like 76 °F
N
20.0
Wind Variable Wind from SSW
Gusts 35.0 mph

Today
High -- | Low -- °F
--% Chance of Precip.
Yesterday
High -- | Low -- °F
Precip. -- in
Pressure 29.64 in
Visibility 10.0 miles
Clouds Scattered Clouds 3800 ft
Heat Index 76 °F
Dew Point 58 °F
Humidity 62%
Rainfall 0.00 in
Snow Depth Not available.
7:25 AM 6:34 PM
Waning Crescent, 4% visible
METAR KHNB 241656Z AUTO 20022G32KT 10SM SCT038 22/13 A2961 RMK AO2 PK WND 20032/1656 SLP035 T02220133
Pressure 29.64 in
Visibility 10.0 miles
Clouds Scattered Clouds 3800 ft
Heat Index 76 °F
Dew Point 58 °F
Humidity 62%
Rainfall 0.00 in
Snow Depth Not available.
7:25 AM 6:34 PM
Waning Crescent, 4% visible
METAR KHNB 241656Z AUTO 20022G32KT 10SM SCT038 22/13 A2961 RMK AO2 PK WND 20032/1656 SLP035 T02220133

Get Your Daily Forecast Email!

Thanks for signing up!

Be on the lookout for a verification email in your inbox.

You'll start receiving the daily forecast at 8 AM.

×

10-Day Weather Forecast

Almanac

Astronomy

Feb. 24, 2017 Rise Set
Actual Time
Civil Twilight
Nautical Twilight
Astronomical Twilight
Moon
Length of Visible Light
Length of Day
Tomorrow will be .
, % of the Moon is Illuminated

Today's Extremes

State Highs State Lows

Community

WunderPhotos

Upload Photos

1,962,540 photos uploaded!

WunderBlog® & News

Nearby

Air Quality

  Air Quality AQ Index Pollutant
Not available.

Snow Depth

Station Depth Elevation

Earthquake Activity

City Distance Mag. Time & Date
Minimum magnitude displayed is 2.5.

Coastal Water Temperatures

Place Temperature

Stations

Nearby Weather Stations

Station Location Temp. Windchill Dew Point Humidity Wind Precip. Elev Updated Type
                   

Watches & Warnings

Special Statement
Issued: 10:02 AM CST Feb. 24, 2017 – National Weather Service

... Gusty south winds will continue this afternoon...

South winds will remain gusty through the afternoon, with frequent
gusts near 35 mph. Winds this strong will make driving difficult
for high-profile vehicles on east-west roadways... including
Interstate 64... and the parkways in Kentucky.


Ras